Time;durP1;ratioP1;P1;durP2;ratioP2;P2;SDS_P1;SDS_P2;PMS_P1;PMS_P2;Temp;Humidity;BMP_temperature;BMP_pressure;BME280_temperature;BME280_humidity;BME280_pressure;Samples;Min_cycle;Max_cycle;Signal;HPM_P1;HPM_P2
2023/02/27 07:17:45;;;;;;;;;;;;;;;-0.92;64.68;98817.53;6212740;22;19946;-64
2023/02/27 07:20:11;;;;;;;;;;;;;;;-0.89;64.06;98825.22;6188577;23;20549;-64
2023/02/27 07:22:36;;;;;;;;;;;;;;;-0.89;64.20;98822.63;6213808;23;19918;-64
2023/02/27 07:25:02;;;;;;;;;;;;;;;-0.85;64.58;98824.28;6213616;23;19983;-64
2023/02/27 07:27:27;;;;;;;;;;;;;;;-0.81;63.95;98815.66;6211175;23;19973;-64
2023/02/27 07:29:52;;;;;;;;;;;;;;;-0.79;63.79;98820.78;6213793;23;19939;-63
2023/02/27 07:32:18;;;;;;;;;;;;;;;-0.79;64.59;98819.06;6211909;23;19915;-62
2023/02/27 07:34:43;;;;;;;;;;;;;;;-0.74;63.86;98822.41;6186839;23;19915;-63
2023/02/27 07:37:08;;;;;;;;;;;;;;;-0.69;63.74;98826.66;6212205;23;19932;-63
2023/02/27 07:39:33;;;;;;;;;;;;;;;-0.68;62.75;98825.81;6214163;23;19908;-62
2023/02/27 07:41:59;;;;;;;;;;;;;;;-0.62;63.06;98829.16;6213856;23;19919;-65
2023/02/27 07:44:24;;;;;;;;;;;;;;;-0.57;63.13;98836.81;6213553;23;19922;-63
2023/02/27 07:46:49;;;;;;;;;;;;;;;-0.52;63.07;98833.31;6186165;23;19912;-61
2023/02/27 07:49:14;;;;;;;;;;;;;;;-0.46;62.81;98828.94;6214363;23;19915;-64
2023/02/27 07:51:39;;;;;;;;;;;;;;;-0.44;63.27;98830.63;6186741;23;19908;-62
2023/02/27 07:54:05;;;;;;;;;;;;;;;-0.39;63.31;98833.97;6213809;23;19908;-61
2023/02/27 07:56:30;;;;;;;;;;;;;;;-0.36;62.59;98825.34;6214620;23;19908;-62
2023/02/27 07:58:55;;;;;;;;;;;;;;;-0.34;62.69;98829.59;6214464;23;19982;-62
2023/02/27 08:01:20;;;;;;;;;;;;;;;-0.36;62.33;98828.75;6187205;23;19960;-64
2023/02/27 08:03:46;;;;;;;;;;;;;;;-0.33;62.58;98833.88;6213031;23;19912;-64
2023/02/27 08:06:11;;;;;;;;;;;;;;;-0.31;62.83;98832.16;6187717;23;19908;-63
2023/02/27 08:08:36;;;;;;;;;;;;;;;-0.25;62.29;98837.19;6214146;23;19914;-63
2023/02/27 08:11:01;;;;;;;;;;;;;;;-0.19;62.36;98836.25;6214018;23;19907;-63
2023/02/27 08:13:27;;;;;;;;;;;;;;;-0.14;62.49;98834.44;6213438;23;19915;-63
2023/02/27 08:15:53;;;;;;;;;;;;;;;-0.07;62.17;98832.63;6213151;23;19908;-63
2023/02/27 08:18:18;;;;;;;;;;;;;;;-0.04;61.89;98842.88;6214179;23;19915;-62
2023/02/27 08:20:43;;;;;;;;;;;;;;;0.01;61.13;98838.53;6214200;23;19907;-62
2023/02/27 08:23:08;;;;;;;;;;;;;;;0.07;60.89;98838.44;6213728;23;19943;-62
2023/02/27 08:25:34;;;;;;;;;;;;;;;0.14;60.60;98842.63;6213478;23;19908;-63
2023/02/27 08:27:59;;;;;;;;;;;;;;;0.23;61.19;98844.16;6214151;23;20000;-64
2023/02/27 08:30:24;;;;;;;;;;;;;;;0.30;61.67;98842.34;6213890;23;19935;-62
2023/02/27 08:32:49;;;;;;;;;;;;;;;0.37;60.78;98841.34;6213948;23;19912;-67
2023/02/27 08:35:14;;;;;;;;;;;;;;;0.45;60.89;98842.94;6213247;23;19915;-64
2023/02/27 08:37:40;;;;;;;;;;;;;;;0.52;59.56;98841.09;6213512;23;19915;-63
2023/02/27 08:40:06;;;;;;;;;;;;;;;0.58;59.66;98846.13;6213722;23;19992;-65
2023/02/27 08:42:31;;;;;;;;;;;;;;;0.63;59.50;98843.50;6186159;23;20255;-63
2023/02/27 08:44:56;;;;;;;;;;;;;;;0.70;58.61;98850.25;6214447;23;20316;-64
2023/02/27 08:47:22;;;;;;;;;;;;;;;0.78;58.10;98843.19;6213884;23;19908;-65
2023/02/27 08:49:47;;;;;;;;;;;;;;;0.79;58.24;98841.44;6186906;23;19908;-64
2023/02/27 08:52:12;;;;;;;;;;;;;;;0.88;58.32;98849.88;6186310;23;19946;-64
2023/02/27 08:54:37;;;;;;;;;;;;;;;0.99;58.04;98846.25;6213211;23;19908;-63
2023/02/27 08:57:03;;;;;;;;;;;;;;;1.02;56.77;98852.19;6213408;23;19915;-63
2023/02/27 08:59:28;;;;;;;;;;;;;;;1.10;56.89;98850.31;6213354;23;19908;-62
2023/02/27 09:01:53;;;;;;;;;;;;;;;1.18;56.19;98839.81;6213154;23;19908;-63
2023/02/27 09:04:19;;;;;;;;;;;;;;;1.28;55.91;98850.84;6213685;23;20347;-65
2023/02/27 09:06:45;;;;;;;;;;;;;;;1.38;56.11;98844.59;6213706;23;20343;-65
2023/02/27 09:09:10;;;;;;;;;;;;;;;1.50;55.57;98844.31;6186624;23;19915;-65
2023/02/27 09:11:35;;;;;;;;;;;;;;;1.61;54.95;98851.81;6185929;23;19908;-65
2023/02/27 09:14:00;;;;;;;;;;;;;;;1.72;54.77;98855.03;6187345;23;19915;-66
2023/02/27 09:16:26;;;;;;;;;;;;;;;1.83;54.73;98847.88;6214320;23;19916;-65
2023/02/27 09:18:51;;;;;;;;;;;;;;;1.93;54.09;98847.66;6189355;23;19908;-64
2023/02/27 09:21:16;;;;;;;;;;;;;;;2.02;53.57;98850.88;6187882;23;19915;-63
2023/02/27 09:23:41;;;;;;;;;;;;;;;2.14;52.99;98847.16;6215592;23;20350;-64
2023/02/27 09:26:08;;;;;;;;;;;;;;;2.25;53.25;98839.13;6188474;23;20644;-63
2023/02/27 09:28:33;;;;;;;;;;;;;;;2.31;52.90;98859.69;6215824;23;20348;-64
2023/02/27 09:30:59;;;;;;;;;;;;;;;2.41;52.29;98850.81;6215451;23;19908;-63
2023/02/27 09:33:27;;;;;;;;;;;;;;;2.50;52.03;98860.91;6188734;23;19990;-64
2023/02/27 09:35:52;;;;;;;;;;;;;;;2.59;51.69;98855.50;6215326;23;19908;-64
2023/02/27 09:38:17;;;;;;;;;;;;;;;2.72;51.41;98863.81;6215464;23;20217;-63
2023/02/27 09:40:42;;;;;;;;;;;;;;;2.85;51.42;98864.31;6215128;23;20283;-64
2023/02/27 09:43:15;;;;;;;;;;;;;;;2.97;50.84;98866.59;6162327;23;20259;-63
2023/02/27 09:45:40;;;;;;;;;;;;;;;3.15;51.16;98874.75;6187884;23;20274;-64
2023/02/27 09:48:11;;;;;;;;;;;;;;;3.32;50.46;98875.97;6215171;23;19914;-64
2023/02/27 09:50:43;;;;;;;;;;;;;;;3.46;50.24;98875.56;6188859;23;19915;-63
2023/02/27 09:53:21;;;;;;;;;;;;;;;3.54;49.32;98873.63;6187635;23;19915;-63
2023/02/27 09:55:46;;;;;;;;;;;;;;;3.61;49.15;98879.44;6214545;23;19908;-64
2023/02/27 09:58:23;;;;;;;;;;;;;;;3.75;48.83;98879.03;6215599;23;19915;-64
2023/02/27 10:00:55;;;;;;;;;;;;;;;3.84;47.79;98875.31;6188495;23;20343;-63
2023/02/27 10:03:38;;;;;;;;;;;;;;;4.03;48.30;98882.50;6214411;23;19920;-63
2023/02/27 10:06:09;;;;;;;;;;;;;;;4.25;47.57;98877.47;6214490;23;19915;-63
2023/02/27 10:08:35;;;;;;;;;;;;;;;4.47;47.35;98888.00;6215339;23;19914;-63
2023/02/27 10:11:02;;;;;;;;;;;;;;;4.62;47.54;98873.66;6188585;23;20294;-63
2023/02/27 10:13:30;;;;;;;;;;;;;;;4.78;47.14;98881.75;6187719;23;19912;-65
2023/02/27 10:15:55;;;;;;;;;;;;;;;4.99;47.17;98881.03;6188066;23;19907;-63
2023/02/27 10:18:23;;;;;;;;;;;;;;;5.16;45.29;98876.97;6188260;23;19915;-63
2023/02/27 10:21:08;;;;;;;;;;;;;;;5.35;45.17;98884.97;6213958;23;19908;-65
2023/02/27 10:23:49;;;;;;;;;;;;;;;5.36;44.74;98879.69;6213175;23;19995;-63
2023/02/27 10:26:21;;;;;;;;;;;;;;;5.39;43.47;98883.94;6214559;23;20331;-63
2023/02/27 10:28:46;;;;;;;;;;;;;;;5.54;43.51;98872.09;6187810;23;19919;-63
2023/02/27 10:31:16;;;;;;;;;;;;;;;5.62;44.06;98880.50;6214760;23;19908;-64
2023/02/27 10:33:41;;;;;;;;;;;;;;;5.54;43.65;98877.31;6187550;23;19914;-64
2023/02/27 10:36:12;;;;;;;;;;;;;;;5.44;43.66;98877.69;6188308;23;19908;-64
2023/02/27 10:38:38;;;;;;;;;;;;;;;5.31;42.95;98883.38;6214838;23;19915;-65
2023/02/27 10:41:04;;;;;;;;;;;;;;;5.11;42.87;98884.94;6214795;23;19910;-64
2023/02/27 10:43:29;;;;;;;;;;;;;;;5.13;43.54;98883.16;6213653;23;19916;-64
2023/02/27 10:45:54;;;;;;;;;;;;;;;5.08;42.84;98886.81;6214370;23;19908;-65
2023/02/27 10:48:21;;;;;;;;;;;;;;;5.07;42.01;98888.56;6215071;23;19912;-63
2023/02/27 10:50:50;;;;;;;;;;;;;;;5.41;41.95;98880.38;6214559;23;19991;-63
2023/02/27 10:53:17;;;;;;;;;;;;;;;5.75;42.10;98878.25;6188580;23;19912;-63
2023/02/27 10:55:42;;;;;;;;;;;;;;;5.66;41.83;98882.06;6186818;23;19990;-63
2023/02/27 10:58:08;;;;;;;;;;;;;;;5.61;41.25;98879.66;6187371;23;19951;-64
2023/02/27 11:00:44;;;;;;;;;;;;;;;5.66;40.85;98887.28;6215002;23;19934;-64
2023/02/27 11:03:19;;;;;;;;;;;;;;;5.70;41.14;98888.84;6187898;23;19911;-64
2023/02/27 11:05:47;;;;;;;;;;;;;;;5.60;41.24;98879.69;6214329;23;19908;-65
2023/02/27 11:08:20;;;;;;;;;;;;;;;5.42;41.62;98889.03;6186795;23;20181;-64
2023/02/27 11:10:56;;;;;;;;;;;;;;;5.28;42.07;98889.53;6214419;23;19908;-64
2023/02/27 11:13:21;;;;;;;;;;;;;;;5.24;41.25;98880.16;6214117;23;20332;-64
2023/02/27 11:15:59;;;;;;;;;;;;;;;5.20;41.36;98882.03;6186567;23;19908;-64
2023/02/27 11:18:28;;;;;;;;;;;;;;;5.20;41.47;98886.38;6187725;23;19923;-64
2023/02/27 11:20:53;;;;;;;;;;;;;;;5.21;42.14;98885.47;6187226;23;19912;-64
2023/02/27 11:23:20;;;;;;;;;;;;;;;5.25;41.15;98881.84;6188317;23;19958;-64
2023/02/27 11:25:45;;;;;;;;;;;;;;;5.32;40.48;98877.28;6186993;23;19995;-64
2023/02/27 11:28:29;;;;;;;;;;;;;;;5.37;41.15;98873.59;6186609;23;19943;-64
2023/02/27 11:30:58;;;;;;;;;;;;;;;5.17;40.83;98878.69;6214785;23;19908;-64
2023/02/27 11:33:23;;;;;;;;;;;;;;;5.23;40.46;98881.06;6186330;23;20331;-64
2023/02/27 11:35:49;;;;;;;;;;;;;;;5.36;40.11;98877.09;6187146;23;19990;-64
2023/02/27 11:38:24;;;;;;;;;;;;;;;5.49;40.61;98869.69;6186385;23;19912;-64
2023/02/27 11:40:59;;;;;;;;;;;;;;;5.99;39.53;98866.06;6188103;23;19908;-63
2023/02/27 11:43:25;;;;;;;;;;;;;;;6.01;39.24;98859.06;6187872;23;19930;-63
2023/02/27 11:45:58;;;;;;;;;;;;;;;6.25;38.70;98868.50;6213036;23;19912;-63
2023/02/27 11:48:24;;;;;;;;;;;;;;;6.84;38.19;98859.94;6186888;23;19912;-63
2023/02/27 11:51:10;;;;;;;;;;;;;;;7.28;37.61;98844.09;6214036;23;19908;-63
2023/02/27 11:53:47;;;;;;;;;;;;;;;7.87;36.47;98844.03;6192425;23;19915;-64
2023/02/27 11:56:17;;;;;;;;;;;;;;;8.37;35.90;98846.81;6213869;23;19912;-64
2023/02/27 11:58:47;;;;;;;;;;;;;;;8.70;35.88;98848.69;6186863;23;19907;-64
2023/02/27 12:01:36;;;;;;;;;;;;;;;9.02;34.31;98841.81;6186726;23;19915;-64
2023/02/27 12:04:03;;;;;;;;;;;;;;;9.24;33.55;98838.91;6197728;23;19948;-63
2023/02/27 12:06:36;;;;;;;;;;;;;;;9.87;32.66;98825.84;6186967;23;19908;-64
2023/02/27 12:09:03;;;;;;;;;;;;;;;10.28;31.69;98830.56;6186734;23;20223;-64
2023/02/27 12:11:34;;;;;;;;;;;;;;;10.41;32.55;98825.44;6162509;23;19915;-64
2023/02/27 12:14:05;;;;;;;;;;;;;;;10.53;30.44;98827.38;6186680;23;19908;-64
2023/02/27 12:16:31;;;;;;;;;;;;;;;10.52;30.55;98830.91;6213646;23;19916;-64
2023/02/27 12:19:19;;;;;;;;;;;;;;;10.36;30.37;98830.13;6185412;23;20175;-64
2023/02/27 12:21:46;;;;;;;;;;;;;;;11.08;29.33;98823.22;6197700;23;19948;-64
2023/02/27 12:24:11;;;;;;;;;;;;;;;10.76;29.50;98825.16;6187496;23;20328;-65
2023/02/27 12:26:37;;;;;;;;;;;;;;;10.28;29.44;98821.84;6214171;23;19914;-66
2023/02/27 12:29:20;;;;;;;;;;;;;;;9.70;30.62;98826.81;6186398;23;19970;-64
2023/02/27 12:31:47;;;;;;;;;;;;;;;9.21;31.23;98821.56;6214569;23;19914;-64
2023/02/27 12:34:27;;;;;;;;;;;;;;;10.14;30.28;98818.19;6213648;23;19915;-64
2023/02/27 12:36:52;;;;;;;;;;;;;;;10.91;29.68;98819.00;6161518;23;19932;-65
2023/02/27 12:39:18;;;;;;;;;;;;;;;11.46;29.26;98807.75;6214084;23;19915;-65
2023/02/27 12:41:46;;;;;;;;;;;;;;;11.58;28.74;98804.34;6187048;23;19914;-65
2023/02/27 12:44:16;;;;;;;;;;;;;;;12.08;28.67;98810.81;6213116;23;20332;-65
2023/02/27 12:46:56;;;;;;;;;;;;;;;12.33;27.87;98806.56;6187182;23;19908;-66
2023/02/27 12:49:39;;;;;;;;;;;;;;;12.95;26.70;98809.38;6213737;23;19908;-66
2023/02/27 12:52:23;;;;;;;;;;;;;;;13.02;27.54;98813.28;6189084;23;19993;-65
2023/02/27 12:55:07;;;;;;;;;;;;;;;13.39;26.58;98816.00;6188651;23;19907;-65
2023/02/27 12:57:35;;;;;;;;;;;;;;;13.93;26.47;98815.63;6215397;23;19908;-64
2023/02/27 13:00:19;;;;;;;;;;;;;;;13.02;26.21;98817.69;6215594;23;19912;-65
2023/02/27 13:02:47;;;;;;;;;;;;;;;12.43;26.95;98817.31;6189218;23;19994;-65
2023/02/27 13:05:27;;;;;;;;;;;;;;;13.01;25.89;98806.31;6215567;23;19908;-66
2023/02/27 13:08:11;;;;;;;;;;;;;;;12.79;25.94;98811.38;6215107;23;19908;-66
2023/02/27 13:10:42;;;;;;;;;;;;;;;12.95;25.84;98811.16;6189249;23;19912;-65
2023/02/27 13:13:27;;;;;;;;;;;;;;;13.64;25.46;98801.09;6164693;23;19915;-65
2023/02/27 13:15:54;;;;;;;;;;;;;;;14.13;25.12;98795.72;6214234;23;19908;-65
2023/02/27 13:18:38;;;;;;;;;;;;;;;14.55;24.81;98800.59;6189098;23;19908;-65
2023/02/27 13:21:06;;;;;;;;;;;;;;;15.04;24.09;98788.94;6215114;23;19983;-64
2023/02/27 13:23:42;;;;;;;;;;;;;;;15.52;23.61;98788.66;6189302;23;20233;-64
2023/02/27 13:26:12;;;;;;;;;;;;;;;16.08;23.79;98793.88;6214675;23;19912;-64
2023/02/27 13:28:37;;;;;;;;;;;;;;;16.53;22.05;98793.66;6188874;23;20239;-65
2023/02/27 13:31:12;;;;;;;;;;;;;;;16.02;22.33;98789.06;6163247;23;19919;-65
2023/02/27 13:33:41;;;;;;;;;;;;;;;15.14;22.79;98795.16;6189047;23;19915;-64
2023/02/27 13:36:15;;;;;;;;;;;;;;;15.17;22.83;98789.63;6188665;23;19978;-64
2023/02/27 13:38:42;;;;;;;;;;;;;;;15.42;22.89;98781.47;6188666;23;20335;-64
2023/02/27 13:41:19;;;;;;;;;;;;;;;14.96;22.30;98785.06;6188280;23;19986;-64
2023/02/27 13:43:48;;;;;;;;;;;;;;;14.87;22.65;98785.78;6215579;23;19912;-64
2023/02/27 13:46:19;;;;;;;;;;;;;;;15.35;22.88;98779.44;6186510;23;19915;-64
2023/02/27 13:48:45;;;;;;;;;;;;;;;15.68;21.96;98770.63;6213977;23;19908;-63
2023/02/27 13:51:29;;;;;;;;;;;;;;;15.97;22.18;98778.03;6188028;23;19911;-63
2023/02/27 13:54:12;;;;;;;;;;;;;;;16.17;21.41;98777.22;6215179;23;20244;-64
2023/02/27 13:56:47;;;;;;;;;;;;;;;16.61;21.34;98780.59;6214732;23;20240;-63
2023/02/27 13:59:19;;;;;;;;;;;;;;;16.72;20.77;98771.75;6187987;23;19908;-65
2023/02/27 14:01:49;;;;;;;;;;;;;;;17.23;20.52;98769.13;6214147;23;19911;-65
2023/02/27 14:04:14;;;;;;;;;;;;;;;17.40;20.36;98756.19;6163830;23;19919;-65
2023/02/27 14:06:43;;;;;;;;;;;;;;;17.81;20.31;98763.16;6163569;23;19907;-65
2023/02/27 14:09:09;;;;;;;;;;;;;;;17.88;20.09;98766.13;6188646;23;19947;-65
2023/02/27 14:11:38;;;;;;;;;;;;;;;17.83;19.75;98763.88;6215194;23;20308;-65
2023/02/27 14:14:04;;;;;;;;;;;;;;;18.23;19.86;98766.41;6189129;23;19975;-66
2023/02/27 14:16:38;;;;;;;;;;;;;;;18.66;19.22;98759.81;6188722;23;19943;-65
2023/02/27 14:19:09;;;;;;;;;;;;;;;18.91;18.82;98758.38;6213238;23;19908;-65
2023/02/27 14:21:50;;;;;;;;;;;;;;;18.96;18.81;98757.97;6215087;23;19908;-65
2023/02/27 14:24:15;;;;;;;;;;;;;;;16.94;20.11;98762.88;6215230;23;19918;-64
2023/02/27 14:26:43;;;;;;;;;;;;;;;15.80;21.91;98767.00;6188578;23;19990;-65
2023/02/27 14:29:13;;;;;;;;;;;;;;;15.04;23.74;98775.72;6163150;23;19912;-66
2023/02/27 14:31:38;;;;;;;;;;;;;;;14.02;23.45;98771.94;6163567;23;20252;-65
2023/02/27 14:34:07;;;;;;;;;;;;;;;13.03;24.67;98766.72;6188078;23;19915;-65
2023/02/27 14:36:59;;;;;;;;;;;;;;;12.10;24.90;98777.34;6164457;23;20250;-66
2023/02/27 14:39:26;;;;;;;;;;;;;;;11.25;26.05;98782.81;6209068;23;19912;-65
2023/02/27 14:41:51;;;;;;;;;;;;;;;10.94;27.23;98784.69;6214471;23;19912;-64
2023/02/27 14:44:17;;;;;;;;;;;;;;;10.46;26.89;98786.72;6215222;23;19912;-64
2023/02/27 14:46:42;;;;;;;;;;;;;;;10.14;27.68;98789.38;6187701;23;19914;-64
2023/02/27 14:49:26;;;;;;;;;;;;;;;9.84;28.52;98789.34;6214708;23;19972;-63
2023/02/27 14:51:52;;;;;;;;;;;;;;;9.69;28.82;98788.41;6214828;23;19908;-62
2023/02/27 14:54:20;;;;;;;;;;;;;;;9.90;28.44;98785.53;6214580;23;20229;-63
2023/02/27 14:57:03;;;;;;;;;;;;;;;11.30;27.07;98793.88;6216527;23;19912;-64
2023/02/27 14:59:44;;;;;;;;;;;;;;;11.58;26.91;98790.34;6214652;23;19943;-64
2023/02/27 15:02:29;;;;;;;;;;;;;;;10.58;27.23;98793.84;6187839;23;20363;-65
2023/02/27 15:05:12;;;;;;;;;;;;;;;10.08;28.50;98800.22;6213621;23;19918;-65
2023/02/27 15:07:38;;;;;;;;;;;;;;;9.43;28.58;98797.72;6163536;23;19908;-65
2023/02/27 15:10:05;;;;;;;;;;;;;;;8.88;29.27;98799.81;6187651;23;19908;-64
2023/02/27 15:12:30;;;;;;;;;;;;;;;8.53;30.05;98805.94;6162496;23;20256;-64
2023/02/27 15:14:59;;;;;;;;;;;;;;;8.19;30.59;98822.44;6187610;23;19912;-63
2023/02/27 15:17:25;;;;;;;;;;;;;;;9.16;29.28;98814.91;6188226;23;19915;-63
2023/02/27 15:19:52;;;;;;;;;;;;;;;10.05;28.26;98810.88;6214358;23;19916;-64
2023/02/27 15:22:30;;;;;;;;;;;;;;;10.52;27.48;98811.72;6187902;23;19915;-64
2023/02/27 15:24:56;;;;;;;;;;;;;;;10.97;27.13;98817.78;6187565;23;20406;-62
2023/02/27 15:27:21;;;;;;;;;;;;;;;11.24;26.49;98807.38;6214408;23;19912;-63
2023/02/27 15:29:48;;;;;;;;;;;;;;;11.45;26.98;98810.47;6188452;23;19908;-64
2023/02/27 15:32:16;;;;;;;;;;;;;;;11.36;27.23;98812.72;6214290;23;20255;-63
2023/02/27 15:34:41;;;;;;;;;;;;;;;11.47;26.64;98809.44;6187467;23;19912;-63
2023/02/27 15:37:07;;;;;;;;;;;;;;;11.67;26.62;98810.81;6187474;23;19907;-63
2023/02/27 15:39:33;;;;;;;;;;;;;;;11.77;26.50;98816.31;6187784;23;20354;-63
2023/02/27 15:42:00;;;;;;;;;;;;;;;11.86;26.65;98810.50;6187789;23;19908;-64
2023/02/27 15:44:26;;;;;;;;;;;;;;;11.93;26.65;98805.69;6188031;23;19951;-64
2023/02/27 15:46:51;;;;;;;;;;;;;;;11.94;25.85;98808.22;6213673;23;19919;-63
2023/02/27 15:49:16;;;;;;;;;;;;;;;11.98;26.68;98809.72;6187076;23;19908;-65
2023/02/27 15:51:42;;;;;;;;;;;;;;;11.95;26.10;98814.34;6187384;23;19915;-64
2023/02/27 15:54:08;;;;;;;;;;;;;;;11.79;26.94;98819.69;6188037;23;19908;-64
2023/02/27 15:56:33;;;;;;;;;;;;;;;11.64;26.36;98817.09;6187687;23;20320;-64
2023/02/27 15:58:59;;;;;;;;;;;;;;;11.58;27.04;98816.63;6187403;23;19914;-65
2023/02/27 16:01:25;;;;;;;;;;;;;;;11.20;26.92;98814.59;6187125;23;20225;-63
2023/02/27 16:03:54;;;;;;;;;;;;;;;10.58;28.06;98824.47;6162931;23;19912;-63
2023/02/27 16:06:26;;;;;;;;;;;;;;;9.97;29.18;98834.88;6213416;23;19986;-62
2023/02/27 16:08:51;;;;;;;;;;;;;;;9.39;29.83;98829.38;6187575;23;19908;-64
2023/02/27 16:11:17;;;;;;;;;;;;;;;8.91;29.99;98839.75;6211481;23;19990;-61
2023/02/27 16:13:43;;;;;;;;;;;;;;;8.43;31.11;98841.31;6213038;23;19986;-61
2023/02/27 16:16:29;;;;;;;;;;;;;;;8.01;31.41;98859.88;6211212;23;19958;-62
2023/02/27 16:18:55;;;;;;;;;;;;;;;7.63;31.95;98859.91;6186040;23;20366;-61
2023/02/27 16:21:26;;;;;;;;;;;;;;;7.30;32.00;98855.31;6162142;23;19908;-60
2023/02/27 16:23:52;;;;;;;;;;;;;;;7.01;32.35;98863.59;6212598;23;19912;-64
2023/02/27 16:26:25;;;;;;;;;;;;;;;6.81;33.69;98865.31;6160637;23;20247;-65
2023/02/27 16:28:50;;;;;;;;;;;;;;;6.53;34.16;98864.75;6212858;23;19919;-64
2023/02/27 16:31:22;;;;;;;;;;;;;;;6.31;34.28;98873.47;6213049;23;19908;-64
2023/02/27 16:33:47;;;;;;;;;;;;;;;6.14;34.95;98876.75;6213480;23;19939;-65
2023/02/27 16:36:38;;;;;;;;;;;;;;;5.98;35.69;98877.41;6184886;23;19911;-65
2023/02/27 16:39:05;;;;;;;;;;;;;;;5.74;35.50;98880.00;6206402;23;19912;-64
2023/02/27 16:41:31;;;;;;;;;;;;;;;5.54;36.25;98885.13;6187338;23;19975;-65
2023/02/27 16:43:56;;;;;;;;;;;;;;;5.41;37.13;98885.59;6212039;23;20291;-64
2023/02/27 16:46:21;;;;;;;;;;;;;;;5.22;37.18;98884.56;6211331;23;19935;-63
2023/02/27 16:48:50;;;;;;;;;;;;;;;5.07;36.98;98890.31;6160958;23;20291;-63
2023/02/27 16:51:16;;;;;;;;;;;;;;;4.88;36.95;98898.72;6212332;23;20002;-64
2023/02/27 16:53:42;;;;;;;;;;;;;;;4.74;37.58;98895.75;6213385;23;19975;-62
2023/02/27 16:56:08;;;;;;;;;;;;;;;4.39;38.56;98905.56;6213466;23;19908;-63
2023/02/27 16:58:33;;;;;;;;;;;;;;;4.35;38.32;98903.97;6212389;23;19959;-63
2023/02/27 17:00:58;;;;;;;;;;;;;;;4.24;38.73;98898.28;6185787;23;19987;-63
2023/02/27 17:03:24;;;;;;;;;;;;;;;4.13;38.78;98905.56;6213689;23;19923;-62
2023/02/27 17:05:49;;;;;;;;;;;;;;;4.07;39.31;98911.81;6187059;23;19908;-64
2023/02/27 17:08:15;;;;;;;;;;;;;;;3.96;39.25;98911.28;6186000;23;19908;-64
2023/02/27 17:10:40;;;;;;;;;;;;;;;3.91;40.58;98908.81;6213335;23;19979;-63
2023/02/27 17:13:05;;;;;;;;;;;;;;;3.80;40.17;98911.75;6213963;23;19940;-62
2023/02/27 17:15:31;;;;;;;;;;;;;;;3.71;40.28;98916.34;6186923;23;19934;-62
2023/02/27 17:17:56;;;;;;;;;;;;;;;3.63;40.61;98918.31;6213020;23;19912;-62
2023/02/27 17:20:23;;;;;;;;;;;;;;;3.55;42.52;98919.41;6212264;23;19908;-62
2023/02/27 17:22:48;;;;;;;;;;;;;;;3.48;40.98;98920.47;6212413;23;19912;-65
2023/02/27 17:25:13;;;;;;;;;;;;;;;3.42;41.64;98925.81;6213834;23;19915;-63
2023/02/27 17:27:40;;;;;;;;;;;;;;;3.35;40.64;98937.25;6185974;23;19983;-63
2023/02/27 17:30:06;;;;;;;;;;;;;;;3.27;40.86;98932.28;6186568;23;19908;-64
2023/02/27 17:32:32;;;;;;;;;;;;;;;3.19;41.66;98936.81;6211825;23;19912;-64
2023/02/27 17:34:58;;;;;;;;;;;;;;;3.10;42.79;98939.69;6187613;23;19962;-63
2023/02/27 17:37:23;;;;;;;;;;;;;;;3.07;42.46;98945.78;6187417;23;19912;-63
2023/02/27 17:39:48;;;;;;;;;;;;;;;3.08;42.84;98951.81;6214187;23;19983;-64
2023/02/27 17:42:17;;;;;;;;;;;;;;;3.05;43.19;98957.94;6187912;23;20225;-64
2023/02/27 17:44:43;;;;;;;;;;;;;;;3.05;43.66;98951.91;6188004;23;20283;-64
2023/02/27 17:47:08;;;;;;;;;;;;;;;3.02;42.38;98958.00;6214833;23;19939;-64
2023/02/27 17:49:33;;;;;;;;;;;;;;;2.95;42.46;98956.47;6187746;23;20255;-64
2023/02/27 17:51:59;;;;;;;;;;;;;;;2.91;43.14;98954.84;6187629;23;20252;-63
2023/02/27 17:54:24;;;;;;;;;;;;;;;2.87;43.19;98962.75;6162944;23;20248;-62
2023/02/27 17:56:49;;;;;;;;;;;;;;;2.85;43.12;98965.34;6213673;23;19907;-64
2023/02/27 17:59:15;;;;;;;;;;;;;;;2.81;43.39;98963.75;6162071;23;19982;-64
2023/02/27 18:01:40;;;;;;;;;;;;;;;2.78;43.23;98963.81;6187218;23;20017;-63
2023/02/27 18:04:06;;;;;;;;;;;;;;;2.74;43.68;98972.56;6214730;23;19919;-63
2023/02/27 18:06:32;;;;;;;;;;;;;;;2.68;43.10;98967.53;6186286;23;19912;-64
2023/02/27 18:08:57;;;;;;;;;;;;;;;2.67;44.44;98976.19;6187349;23;20255;-64
2023/02/27 18:11:22;;;;;;;;;;;;;;;2.67;45.34;98977.03;6187284;23;20022;-64
2023/02/27 18:13:47;;;;;;;;;;;;;;;2.66;45.23;98979.69;6184230;23;19958;-64
2023/02/27 18:16:13;;;;;;;;;;;;;;;2.61;44.91;98978.06;6212114;23;19912;-64
2023/02/27 18:18:38;;;;;;;;;;;;;;;2.58;45.17;98977.25;6213660;23;19904;-63
2023/02/27 18:21:04;;;;;;;;;;;;;;;2.54;44.35;98979.06;6188007;23;19983;-64
2023/02/27 18:23:30;;;;;;;;;;;;;;;2.49;44.59;98973.16;6187311;23;19919;-64
2023/02/27 18:25:55;;;;;;;;;;;;;;;2.41;44.81;98977.69;6214072;23;19911;-64
2023/02/27 18:28:21;;;;;;;;;;;;;;;2.38;45.54;98978.59;6161696;23;19920;-64
2023/02/27 18:30:46;;;;;;;;;;;;;;;2.31;45.21;98977.03;6188103;23;19912;-64
2023/02/27 18:33:11;;;;;;;;;;;;;;;2.29;45.76;98983.97;6214043;23;19937;-63
2023/02/27 18:35:36;;;;;;;;;;;;;;;2.27;45.35;98987.47;6188185;23;19915;-64
2023/02/27 18:38:02;;;;;;;;;;;;;;;2.22;44.94;98984.16;6212432;23;19911;-64
2023/02/27 18:40:27;;;;;;;;;;;;;;;2.18;45.38;98992.88;6212754;23;19908;-63
2023/02/27 18:42:53;;;;;;;;;;;;;;;2.16;45.19;98979.09;6214030;23;19912;-64
2023/02/27 18:45:18;;;;;;;;;;;;;;;2.13;45.50;98985.19;6186155;23;20371;-63
2023/02/27 18:47:43;;;;;;;;;;;;;;;2.75;68.92;98979.44;6186690;23;20263;-64
2023/02/27 18:50:09;;;;;;;;;;;;;;;2.57;49.05;98985.91;6214435;23;19907;-63
2023/02/27 18:52:34;;;;;;;;;;;;;;;2.53;47.19;98976.53;6213352;23;19916;-63
2023/02/27 18:54:59;;;;;;;;;;;;;;;2.51;48.08;98986.94;6214698;23;19935;-63
2023/02/27 18:57:24;;;;;;;;;;;;;;;2.48;46.36;98983.53;6187649;23;19916;-63
2023/02/27 18:59:49;;;;;;;;;;;;;;;2.44;47.33;98981.91;6214299;23;19915;-63
2023/02/27 19:02:15;;;;;;;;;;;;;;;4.60;62.27;98983.72;6213746;23;19907;-63
2023/02/27 19:04:40;;;;;;;;;;;;;;;4.12;48.00;98984.34;6214089;23;20328;-64
2023/02/27 19:07:06;;;;;;;;;;;;;;;3.75;44.65;98985.41;6187505;23;19974;-62
2023/02/27 19:09:31;;;;;;;;;;;;;;;3.51;45.15;98986.94;6188094;23;20004;-63
2023/02/27 19:11:57;;;;;;;;;;;;;;;3.28;46.48;98982.41;6187548;23;19918;-62
2023/02/27 19:14:22;;;;;;;;;;;;;;;3.09;45.82;98982.88;6186793;23;19943;-62
2023/02/27 19:16:49;;;;;;;;;;;;;;;2.89;46.78;98987.75;6162087;23;19935;-63
2023/02/27 19:19:14;;;;;;;;;;;;;;;2.77;46.36;98982.84;6188348;23;19908;-62
2023/02/27 19:21:40;;;;;;;;;;;;;;;2.65;46.94;98988.31;6187400;23;19914;-63
2023/02/27 19:24:06;;;;;;;;;;;;;;;2.52;47.27;98986.03;6212332;23;19939;-62
2023/02/27 19:26:32;;;;;;;;;;;;;;;2.41;47.77;98989.75;6186286;23;20438;-62
2023/02/27 19:28:58;;;;;;;;;;;;;;;2.29;46.25;98989.16;6188182;23;19946;-62
2023/02/27 19:31:23;;;;;;;;;;;;;;;2.22;47.69;98989.31;6210456;23;19907;-61
2023/02/27 19:33:48;;;;;;;;;;;;;;;2.19;48.57;98984.22;6186401;23;19933;-62
2023/02/27 19:36:14;;;;;;;;;;;;;;;2.11;48.13;98993.00;6213421;23;19916;-62
2023/02/27 19:38:39;;;;;;;;;;;;;;;2.01;48.45;98995.81;6186949;23;19908;-62
2023/02/27 19:41:05;;;;;;;;;;;;;;;1.96;48.48;98995.06;6213649;23;19908;-62
2023/02/27 19:43:31;;;;;;;;;;;;;;;1.93;48.10;98993.41;6213384;23;20385;-63
2023/02/27 19:45:56;;;;;;;;;;;;;;;1.84;47.20;98991.00;6161827;23;20419;-63
2023/02/27 19:48:21;;;;;;;;;;;;;;;1.79;47.49;99000.56;6161924;23;19919;-63
2023/02/27 19:50:48;;;;;;;;;;;;;;;1.72;48.51;98996.41;6185468;23;20243;-61
2023/02/27 19:53:13;;;;;;;;;;;;;;;1.66;48.73;98998.25;6212675;23;19908;-62
2023/02/27 19:55:38;;;;;;;;;;;;;;;1.61;48.55;98997.47;6186407;23;19915;-62
2023/02/27 19:58:04;;;;;;;;;;;;;;;1.55;49.87;99002.78;6212639;23;19932;-63
2023/02/27 20:00:30;;;;;;;;;;;;;;;1.49;49.67;99005.50;6213169;23;20205;-62
2023/02/27 20:02:55;;;;;;;;;;;;;;;1.46;50.92;99004.69;6213696;23;19938;-62
2023/02/27 20:05:20;;;;;;;;;;;;;;;1.44;52.11;99007.28;6212455;23;19915;-62
2023/02/27 20:07:47;;;;;;;;;;;;;;;1.43;52.78;99010.78;6186353;23;20402;-63
2023/02/27 20:10:12;;;;;;;;;;;;;;;3.63;88.42;99011.72;6213326;23;19912;-62
2023/02/27 20:12:37;;;;;;;;;;;;;;;4.49;55.71;99008.28;6212800;23;19955;-62
2023/02/27 20:15:07;;;;;;;;;;;;;;;3.64;50.29;99005.63;6161735;23;19911;-63